Comunidad Punta Salinas, Puerto Rico
Current Conditions -  °F | °C
As of 11:56 AM on Friday 19 Dec 2014 (Local Time) from TJSJ Reporting Station
Scattered Clouds Scattered Clouds  
Wind Chill: 83°   Ceiling: Unl
Heat Index: 86°   Visibility: 10mi
Dew Point: 69°   Wind: 15mph
Humidity: 63%   Direction: 70°ENE
Pressure: 30"   Gusts: NA
Location:  18.4519°N, 66.1817°W
Report Text: TJSJ 191556Z 07013KT 10SM SCT035 28/21 A3000 RMK AO2 SLP157 T02830206
Loading
Personal Weather Stations






























Interactive Weather Map New forecast layout! Learn more

10-Day Weather Forecast

Advertisements
Track Severe Weather on mobile